Time;durP1;ratioP1;P1;durP2;ratioP2;P2;SDS_P1;SDS_P2;PMS_P1;PMS_P2;Temp;Humidity;BMP_temperature;BMP_pressure;BME280_temperature;BME280_humidity;BME280_pressure;Samples;Min_cycle;Max_cycle;Signal;HPM_P1;HPM_P2
2023/04/20 00:01:02;;;;;;;6.20;2.70;;;8.80;99.90;;;;;;5003580;28;20087;-55
2023/04/20 00:03:28;;;;;;;6.13;2.50;;;8.80;99.90;;;;;;5003253;28;20071;-58
2023/04/20 00:05:53;;;;;;;4.45;2.47;;;8.80;99.90;;;;;;5003323;28;20034;-58
2023/04/20 00:08:19;;;;;;;5.47;2.40;;;8.80;99.90;;;;;;5002402;28;20050;-54
2023/04/20 00:10:45;;;;;;;7.82;2.75;;;8.80;99.90;;;;;;5002830;28;20057;-57
2023/04/20 00:13:11;;;;;;;5.40;2.50;;;8.80;99.90;;;;;;5003371;28;20042;-56
2023/04/20 00:15:37;;;;;;;5.93;2.80;;;8.80;99.90;;;;;;5003306;28;20077;-57
2023/04/20 00:18:03;;;;;;;4.82;2.60;;;8.80;99.90;;;;;;5002668;28;20088;-50
2023/04/20 00:20:28;;;;;;;4.72;2.90;;;8.80;99.90;;;;;;5003380;28;20123;-53
2023/04/20 00:22:54;;;;;;;7.70;2.55;;;8.80;99.90;;;;;;5002340;28;20508;-57
2023/04/20 00:25:20;;;;;;;5.60;3.00;;;8.90;99.90;;;;;;5003196;28;20049;-54
2023/04/20 00:27:46;;;;;;;5.93;2.47;;;8.80;99.90;;;;;;5002920;28;20042;-52
2023/04/20 00:30:12;;;;;;;4.47;2.45;;;8.80;99.90;;;;;;5001376;28;20059;-56
2023/04/20 00:32:38;;;;;;;6.38;2.50;;;8.80;99.90;;;;;;5003010;28;20049;-52
2023/04/20 00:35:04;;;;;;;6.53;2.92;;;8.80;99.90;;;;;;5002639;28;20046;-53
2023/04/20 00:37:30;;;;;;;5.43;2.50;;;8.80;99.90;;;;;;5001582;28;20109;-58
2023/04/20 00:39:56;;;;;;;5.82;2.67;;;8.80;99.90;;;;;;5002477;28;20387;-54
2023/04/20 00:42:22;;;;;;;6.00;2.70;;;8.80;99.90;;;;;;5002940;28;20046;-52
2023/04/20 00:44:49;;;;;;;8.85;2.70;;;8.80;99.90;;;;;;5002279;28;20532;-57
2023/04/20 00:47:15;;;;;;;7.45;2.47;;;8.90;99.90;;;;;;5003125;28;20038;-56
2023/04/20 00:49:41;;;;;;;5.32;2.75;;;8.90;99.90;;;;;;5001720;28;20129;-54
2023/04/20 00:52:07;;;;;;;6.00;2.70;;;8.80;99.90;;;;;;5003163;28;20468;-57
2023/04/20 00:54:34;;;;;;;5.20;2.72;;;8.80;99.90;;;;;;5000740;28;20495;-57
2023/04/20 00:57:01;;;;;;;5.15;2.40;;;8.80;99.90;;;;;;5002930;28;20052;-52
2023/04/20 00:59:27;;;;;;;4.75;2.83;;;8.80;99.90;;;;;;5000882;28;20049;-51
2023/04/20 01:01:53;;;;;;;6.45;2.20;;;8.80;99.90;;;;;;5002965;28;20440;-57
2023/04/20 01:04:19;;;;;;;6.30;2.45;;;8.90;99.90;;;;;;5002787;28;20100;-58
2023/04/20 01:06:45;;;;;;;5.38;2.95;;;8.70;99.90;;;;;;5002668;28;20062;-53
2023/04/20 01:09:11;;;;;;;8.77;2.75;;;8.80;99.90;;;;;;5001961;28;20053;-54
2023/04/20 01:11:37;;;;;;;5.32;2.60;;;8.70;99.90;;;;;;5003231;28;20050;-55
2023/04/20 01:14:03;;;;;;;7.55;2.47;;;8.70;99.90;;;;;;4988703;28;20085;-58
2023/04/20 01:16:30;;;;;;;6.57;2.58;;;8.70;99.90;;;;;;4982614;28;20077;-49
2023/04/20 01:18:56;;;;;;;8.07;2.50;;;8.70;99.90;;;;;;4983121;28;20046;-57
2023/04/20 01:21:21;;;;;;;5.20;2.50;;;8.70;99.90;;;;;;4982734;28;20039;-56
2023/04/20 01:23:47;;;;;;;6.38;2.83;;;8.70;99.90;;;;;;4981346;28;20042;-51
2023/04/20 01:26:15;;;;;;;7.50;2.92;;;8.70;99.90;;;;;;4983268;28;20038;-55
2023/04/20 01:28:42;;;;;;;5.53;2.63;;;8.70;99.90;;;;;;4983392;28;20378;-56
2023/04/20 01:31:09;;;;;;;9.73;3.10;;;8.70;99.90;;;;;;4983248;28;20212;-52
2023/04/20 01:33:35;;;;;;;6.57;3.00;;;8.70;99.90;;;;;;4982664;28;20042;-57
2023/04/20 01:36:01;;;;;;;5.78;2.67;;;8.60;99.90;;;;;;4982972;28;20500;-53
2023/04/20 01:38:27;;;;;;;6.53;3.08;;;8.50;99.90;;;;;;4982215;28;20540;-58
2023/04/20 01:40:54;;;;;;;8.88;3.10;;;8.60;99.90;;;;;;4982300;28;20050;-53
2023/04/20 01:43:20;;;;;;;6.07;2.83;;;8.60;99.90;;;;;;4982716;28;20466;-55
2023/04/20 01:45:46;;;;;;;8.52;2.67;;;8.50;99.90;;;;;;4985867;28;20047;-56
2023/04/20 01:48:12;;;;;;;7.07;2.30;;;8.40;99.90;;;;;;4985947;28;20591;-58
2023/04/20 01:50:37;;;;;;;5.65;2.67;;;8.30;99.90;;;;;;4986138;28;20111;-52
2023/04/20 01:53:03;;;;;;;7.68;2.92;;;8.30;99.90;;;;;;4985249;28;20097;-55
2023/04/20 01:55:28;;;;;;;5.85;2.70;;;8.30;99.90;;;;;;4986221;28;20073;-58
2023/04/20 01:57:54;;;;;;;6.25;2.85;;;8.20;99.90;;;;;;4985511;28;20041;-54
2023/04/20 02:00:20;;;;;;;6.47;3.00;;;8.20;99.90;;;;;;4986237;28;20456;-55
2023/04/20 02:02:45;;;;;;;4.25;2.60;;;8.20;99.90;;;;;;4986035;28;20496;-57
2023/04/20 02:05:11;;;;;;;5.85;3.03;;;8.10;99.90;;;;;;4985451;28;20050;-56
2023/04/20 02:07:37;;;;;;;7.53;2.95;;;8.20;99.90;;;;;;4985308;28;20054;-54
2023/04/20 02:10:03;;;;;;;9.18;3.08;;;8.20;99.90;;;;;;4986102;28;20054;-49
2023/04/20 02:12:29;;;;;;;6.80;2.92;;;8.20;99.90;;;;;;4985507;28;20038;-51
2023/04/20 02:14:54;;;;;;;5.30;2.70;;;8.10;99.90;;;;;;4985810;28;20056;-53
2023/04/20 02:17:20;;;;;;;7.32;2.60;;;8.20;99.90;;;;;;4985868;28;20489;-55
2023/04/20 02:19:46;;;;;;;8.85;3.00;;;8.20;99.90;;;;;;4985517;28;20054;-58
2023/04/20 02:22:13;;;;;;;6.90;2.80;;;8.20;99.90;;;;;;4985292;28;20046;-58
2023/04/20 02:24:40;;;;;;;4.97;2.38;;;8.20;99.90;;;;;;4985163;28;20042;-55
2023/04/20 02:27:06;;;;;;;6.18;2.80;;;8.30;99.90;;;;;;4986088;28;20052;-56
2023/04/20 02:29:31;;;;;;;6.13;2.47;;;8.20;99.90;;;;;;4984689;28;20548;-58
2023/04/20 02:31:57;;;;;;;5.28;2.40;;;8.30;99.90;;;;;;4985357;28;20056;-55
2023/04/20 02:34:23;;;;;;;5.60;2.55;;;8.30;99.90;;;;;;4985327;28;20050;-58
2023/04/20 02:36:49;;;;;;;8.68;2.90;;;8.30;99.90;;;;;;4997555;28;20246;-49
2023/04/20 02:39:14;;;;;;;5.10;2.33;;;8.40;99.90;;;;;;5003991;28;20034;-53
2023/04/20 02:41:40;;;;;;;6.45;2.35;;;8.40;99.90;;;;;;5005024;28;20046;-56
2023/04/20 02:44:06;;;;;;;7.05;2.70;;;8.40;99.90;;;;;;5004420;28;20558;-51
2023/04/20 02:46:31;;;;;;;5.82;2.35;;;8.50;99.90;;;;;;5004106;28;20120;-53
2023/04/20 02:48:57;;;;;;;4.28;2.47;;;8.50;99.90;;;;;;5003534;28;20054;-58
2023/04/20 02:51:22;;;;;;;4.68;2.42;;;8.50;99.90;;;;;;5004327;28;20046;-47
2023/04/20 02:53:48;;;;;;;6.40;2.63;;;8.50;99.90;;;;;;5003536;28;20049;-53
2023/04/20 02:56:14;;;;;;;5.40;2.53;;;8.50;99.90;;;;;;5003872;28;20038;-55
2023/04/20 02:58:40;;;;;;;6.38;2.80;;;8.50;99.90;;;;;;5004265;28;20037;-55
2023/04/20 03:01:06;;;;;;;5.72;2.33;;;8.50;99.90;;;;;;5004340;28;20295;-56
2023/04/20 03:03:31;;;;;;;9.55;2.33;;;8.60;99.90;;;;;;5003788;28;20481;-55
2023/04/20 03:05:57;;;;;;;7.07;2.63;;;8.50;99.90;;;;;;5004152;28;20388;-57
2023/04/20 03:08:23;;;;;;;6.40;2.67;;;8.50;99.90;;;;;;5003170;28;20080;-58
2023/04/20 03:10:48;;;;;;;6.43;3.17;;;8.40;99.90;;;;;;5003816;28;20054;-49
2023/04/20 03:13:14;;;;;;;6.07;2.78;;;8.60;99.90;;;;;;5004652;28;20064;-56
2023/04/20 03:15:40;;;;;;;4.38;2.55;;;8.50;99.90;;;;;;5003962;28;20389;-56
2023/04/20 03:18:05;;;;;;;7.38;2.55;;;8.50;99.90;;;;;;5004272;28;20065;-50
2023/04/20 03:20:31;;;;;;;4.93;2.53;;;8.50;99.90;;;;;;5003594;28;20450;-57
2023/04/20 03:22:57;;;;;;;9.15;2.90;;;8.50;99.90;;;;;;5003371;28;20077;-58
2023/04/20 03:25:22;;;;;;;5.82;2.22;;;8.50;99.90;;;;;;5004011;28;20046;-53
2023/04/20 03:27:48;;;;;;;5.43;2.50;;;8.50;99.90;;;;;;5003989;28;20160;-57
2023/04/20 03:30:14;;;;;;;5.47;2.67;;;8.50;99.90;;;;;;5003784;28;20543;-58
2023/04/20 03:32:41;;;;;;;4.95;2.17;;;8.40;99.90;;;;;;5003569;28;20116;-55
2023/04/20 03:35:07;;;;;;;7.13;2.60;;;8.50;99.90;;;;;;5001906;28;20061;-46
2023/04/20 03:37:35;;;;;;;4.47;2.45;;;8.50;99.90;;;;;;5003228;28;20061;-58
2023/04/20 03:40:00;;;;;;;5.28;2.40;;;8.50;99.90;;;;;;5003769;28;20095;-58
2023/04/20 03:42:26;;;;;;;3.75;2.38;;;8.40;99.90;;;;;;5003845;28;20120;-52
2023/04/20 03:44:51;;;;;;;6.45;2.28;;;8.50;99.90;;;;;;5003400;28;20042;-57
2023/04/20 03:47:17;;;;;;;7.40;2.70;;;8.40;99.90;;;;;;5004230;28;20042;-56
2023/04/20 03:49:43;;;;;;;6.15;2.20;;;8.40;99.90;;;;;;5003765;28;20042;-52
2023/04/20 03:52:08;;;;;;;4.50;2.22;;;8.40;99.90;;;;;;5003164;28;20120;-55
2023/04/20 03:54:34;;;;;;;6.75;2.58;;;8.40;99.90;;;;;;5002752;28;20463;-58
2023/04/20 03:57:01;;;;;;;6.45;2.45;;;8.40;99.90;;;;;;5003211;28;20138;-53
2023/04/20 03:59:26;;;;;;;4.55;2.20;;;8.40;99.90;;;;;;5003609;28;20050;-55
2023/04/20 04:01:53;;;;;;;4.25;2.20;;;8.40;99.90;;;;;;5002977;28;20314;-59
2023/04/20 04:04:18;;;;;;;7.32;2.50;;;8.60;99.90;;;;;;5003277;28;20045;-59
2023/04/20 04:06:44;;;;;;;5.35;2.22;;;8.40;99.90;;;;;;5002906;28;20053;-53
2023/04/20 04:09:10;;;;;;;7.32;2.20;;;8.40;99.90;;;;;;5001826;28;20165;-49
2023/04/20 04:11:35;;;;;;;4.82;2.17;;;8.30;99.90;;;;;;5003220;28;20046;-58
2023/04/20 04:14:03;;;;;;;5.47;2.10;;;8.30;99.90;;;;;;5003371;28;20507;-53
2023/04/20 04:16:30;;;;;;;4.18;2.13;;;8.30;99.90;;;;;;5002641;28;20117;-57
2023/04/20 04:18:56;;;;;;;8.45;2.10;;;8.30;99.90;;;;;;5002982;28;20081;-54
2023/04/20 04:21:21;;;;;;;4.40;2.10;;;8.30;99.90;;;;;;5003374;28;20476;-58
2023/04/20 04:23:48;;;;;;;9.35;2.42;;;8.30;99.90;;;;;;5001045;28;20096;-54
2023/04/20 04:26:14;;;;;;;5.43;2.92;;;8.20;99.90;;;;;;5002391;28;20041;-58
2023/04/20 04:28:40;;;;;;;7.18;2.10;;;8.20;99.90;;;;;;5002789;28;20046;-50
2023/04/20 04:31:06;;;;;;;6.13;2.10;;;8.20;99.90;;;;;;5002950;28;20042;-51
2023/04/20 04:33:33;;;;;;;6.80;2.38;;;8.20;99.90;;;;;;5002259;28;20056;-51
2023/04/20 04:36:00;;;;;;;4.45;2.10;;;8.10;99.90;;;;;;5002881;28;20190;-59
2023/04/20 04:38:26;;;;;;;6.55;2.28;;;8.10;99.90;;;;;;5001989;28;20073;-58
2023/04/20 04:40:52;;;;;;;4.93;2.53;;;8.10;99.90;;;;;;5002504;28;20046;-52
2023/04/20 04:43:19;;;;;;;6.10;2.58;;;8.20;99.90;;;;;;5002893;28;20038;-58
2023/04/20 04:45:45;;;;;;;5.95;2.80;;;7.90;99.90;;;;;;5002070;28;20604;-57
2023/04/20 04:48:12;;;;;;;3.67;1.90;;;7.80;99.90;;;;;;5002804;28;20132;-54
2023/04/20 04:50:38;;;;;;;5.68;2.15;;;7.80;99.90;;;;;;5002958;28;20468;-54
2023/04/20 04:53:04;;;;;;;5.68;2.20;;;7.80;99.90;;;;;;5002185;28;20085;-54
2023/04/20 04:55:30;;;;;;;5.30;2.33;;;7.70;99.90;;;;;;5002597;28;20082;-59
2023/04/20 04:57:56;;;;;;;4.13;2.40;;;7.70;99.90;;;;;;5002120;28;20034;-56
2023/04/20 05:00:22;;;;;;;7.28;2.42;;;7.70;99.90;;;;;;5003051;28;20482;-57
2023/04/20 05:02:48;;;;;;;4.38;2.50;;;7.60;99.90;;;;;;5002749;28;20246;-58
2023/04/20 05:05:13;;;;;;;11.48;3.50;;;7.50;99.90;;;;;;5002070;28;20038;-54
2023/04/20 05:07:39;;;;;;;5.07;2.70;;;7.50;99.90;;;;;;5001989;28;20054;-58
2023/04/20 05:10:06;;;;;;;3.92;2.50;;;7.50;99.90;;;;;;5002589;28;20365;-59
2023/04/20 05:12:32;;;;;;;6.38;2.70;;;7.50;99.90;;;;;;5002548;28;20078;-58
2023/04/20 05:14:58;;;;;;;9.80;2.90;;;7.50;99.90;;;;;;5001854;28;20204;-50
2023/04/20 05:17:23;;;;;;;7.30;2.60;;;7.50;99.90;;;;;;5003485;28;20034;-59
2023/04/20 05:19:49;;;;;;;5.93;2.72;;;7.40;99.90;;;;;;5003929;28;20591;-59
2023/04/20 05:22:16;;;;;;;4.57;2.47;;;7.50;99.90;;;;;;5005099;28;20401;-53
2023/04/20 05:24:41;;;;;;;5.00;2.58;;;7.40;99.90;;;;;;5006358;28;20042;-52
2023/04/20 05:27:08;;;;;;;6.93;2.60;;;7.40;99.90;;;;;;5006124;28;20525;-56
2023/04/20 05:29:34;;;;;;;4.97;2.70;;;7.40;99.90;;;;;;5005323;28;20087;-51
2023/04/20 05:31:59;;;;;;;6.75;2.80;;;7.70;99.90;;;;;;5004942;28;20050;-52
2023/04/20 05:34:25;;;;;;;6.65;3.10;;;7.40;99.90;;;;;;5006204;28;20448;-58
2023/04/20 05:36:53;;;;;;;6.43;2.92;;;7.40;99.90;;;;;;5006085;28;20037;-49
2023/04/20 05:39:19;;;;;;;7.13;2.45;;;7.30;99.90;;;;;;5004917;28;20413;-53
2023/04/20 05:41:46;;;;;;;5.22;3.17;;;7.30;99.90;;;;;;5006051;28;20129;-54
2023/04/20 05:44:11;;;;;;;5.82;2.72;;;7.30;99.90;;;;;;5005658;28;20042;-57
2023/04/20 05:46:37;;;;;;;6.97;2.45;;;7.30;99.90;;;;;;5004995;28;20571;-60
2023/04/20 05:49:03;;;;;;;6.57;2.85;;;7.30;99.90;;;;;;5004455;28;20038;-54
2023/04/20 05:51:32;;;;;;;6.30;2.83;;;7.30;99.90;;;;;;5005893;28;20065;-57
2023/04/20 05:53:59;;;;;;;4.82;2.45;;;7.30;99.90;;;;;;5004314;28;20049;-48
2023/04/20 05:56:24;;;;;;;8.75;2.85;;;7.30;99.90;;;;;;5005545;28;20351;-59
2023/04/20 05:58:51;;;;;;;4.22;2.28;;;7.30;99.90;;;;;;5005262;28;20443;-55
2023/04/20 06:01:17;;;;;;;6.43;2.80;;;7.40;99.90;;;;;;5004106;28;20054;-59
2023/04/20 06:03:42;;;;;;;4.18;2.45;;;7.40;99.90;;;;;;5005093;28;20037;-55
2023/04/20 06:06:08;;;;;;;8.43;2.78;;;7.30;99.90;;;;;;5005013;28;20057;-55
2023/04/20 06:08:34;;;;;;;5.18;2.78;;;7.30;99.90;;;;;;5004940;28;20046;-54
2023/04/20 06:10:59;;;;;;;5.93;2.78;;;7.50;99.90;;;;;;5004937;28;20077;-55
2023/04/20 06:13:25;;;;;;;6.38;2.80;;;7.50;99.90;;;;;;5005212;28;20117;-58
2023/04/20 06:15:52;;;;;;;6.82;2.53;;;7.60;99.90;;;;;;5005529;28;20042;-56
2023/04/20 06:18:18;;;;;;;5.50;2.60;;;7.30;99.90;;;;;;5004971;28;20109;-55
2023/04/20 06:20:44;;;;;;;5.57;2.90;;;7.30;99.90;;;;;;5005046;28;20592;-51
2023/04/20 06:23:10;;;;;;;5.10;2.70;;;7.30;99.90;;;;;;5004362;28;20382;-55
2023/04/20 06:25:37;;;;;;;4.38;2.63;;;7.20;99.90;;;;;;5005423;28;20452;-52
2023/04/20 06:28:03;;;;;;;5.20;2.63;;;7.20;99.90;;;;;;5003998;28;20038;-60
2023/04/20 06:30:29;;;;;;;4.72;2.58;;;7.20;99.90;;;;;;5004899;28;20053;-57
2023/04/20 06:32:55;;;;;;;5.32;2.58;;;7.30;99.90;;;;;;5004873;28;20137;-55
2023/04/20 06:35:22;;;;;;;4.78;2.85;;;7.10;99.90;;;;;;5004483;28;20060;-56
2023/04/20 06:37:48;;;;;;;6.65;3.00;;;7.00;99.90;;;;;;5003972;28;20077;-57
2023/04/20 06:40:14;;;;;;;5.00;3.00;;;7.00;99.90;;;;;;5005037;28;20076;-57
2023/04/20 06:42:40;;;;;;;5.72;3.30;;;6.90;99.90;;;;;;5004461;28;20130;-56
2023/04/20 06:45:06;;;;;;;6.90;2.88;;;6.80;99.90;;;;;;5004593;28;20053;-58
2023/04/20 06:47:32;;;;;;;5.97;3.33;;;6.70;99.90;;;;;;5004699;28;20441;-59
2023/04/20 06:50:05;;;;;;;7.63;3.28;;;6.70;99.90;;;;;;5004959;28;20045;-55
2023/04/20 06:52:31;;;;;;;5.78;3.58;;;6.60;99.90;;;;;;5003852;28;20049;-51
2023/04/20 06:54:58;;;;;;;7.38;3.08;;;6.60;99.90;;;;;;5004787;28;20091;-56
2023/04/20 06:57:24;;;;;;;6.35;3.28;;;6.50;99.90;;;;;;5004534;28;20104;-61
2023/04/20 06:59:49;;;;;;;5.07;2.88;;;6.60;99.90;;;;;;5003761;28;20037;-57
2023/04/20 07:02:15;;;;;;;7.97;3.22;;;6.50;99.90;;;;;;5004025;28;20077;-53
2023/04/20 07:04:41;;;;;;;6.43;3.00;;;6.50;99.90;;;;;;5004486;28;20046;-49
2023/04/20 07:07:06;;;;;;;6.00;3.55;;;6.50;99.90;;;;;;5002721;28;20393;-61
2023/04/20 07:09:32;;;;;;;5.80;3.50;;;6.40;99.90;;;;;;5002439;28;20046;-56
2023/04/20 07:11:58;;;;;;;6.10;3.60;;;6.40;99.90;;;;;;5004561;28;20132;-58
2023/04/20 07:14:23;;;;;;;6.88;3.53;;;7.00;99.90;;;;;;5002518;28;20376;-60
2023/04/20 07:16:53;;;;;;;7.97;3.72;;;6.50;99.90;;;;;;5003681;28;20046;-53
2023/04/20 07:19:19;;;;;;;7.40;3.13;;;6.40;99.90;;;;;;5004078;28;20046;-54
2023/04/20 07:21:45;;;;;;;5.30;3.30;;;6.40;99.90;;;;;;5003326;28;20050;-56
2023/04/20 07:24:11;;;;;;;7.50;3.45;;;6.40;99.90;;;;;;5003436;28;20053;-59
2023/04/20 07:26:37;;;;;;;7.47;3.45;;;6.40;99.90;;;;;;5004002;28;20037;-53
2023/04/20 07:29:03;;;;;;;4.13;3.10;;;6.40;99.90;;;;;;5004536;28;20193;-55
2023/04/20 07:31:28;;;;;;;6.38;3.63;;;6.40;99.90;;;;;;5003462;28;20042;-57
2023/04/20 07:33:54;;;;;;;6.65;3.75;;;6.40;99.90;;;;;;5003244;28;20531;-58
2023/04/20 07:36:21;;;;;;;5.40;3.70;;;6.60;99.90;;;;;;5003525;28;20120;-54
2023/04/20 07:38:47;;;;;;;5.55;3.80;;;6.70;99.90;;;;;;5001637;28;20357;-59
2023/04/20 07:41:13;;;;;;;5.65;3.25;;;6.70;99.90;;;;;;5002848;28;20049;-61
2023/04/20 07:43:39;;;;;;;7.47;3.78;;;6.80;99.90;;;;;;5002767;28;20512;-57
2023/04/20 07:46:05;;;;;;;6.63;3.13;;;6.80;99.90;;;;;;5003803;28;20104;-56
2023/04/20 07:48:32;;;;;;;6.47;3.47;;;6.80;99.90;;;;;;5002979;28;20049;-54
2023/04/20 07:50:58;;;;;;;6.82;3.35;;;6.90;99.90;;;;;;5003183;28;20056;-59
2023/04/20 07:53:24;;;;;;;7.28;3.15;;;7.00;99.90;;;;;;5002604;28;20143;-55
2023/04/20 07:55:50;;;;;;;7.28;3.50;;;6.90;99.90;;;;;;5003102;28;20100;-58
2023/04/20 07:58:16;;;;;;;7.70;3.67;;;7.00;99.90;;;;;;5005967;28;20586;-58
2023/04/20 08:00:41;;;;;;;6.63;3.38;;;7.10;99.90;;;;;;5003543;28;20042;-57
2023/04/20 08:03:07;;;;;;;8.80;3.45;;;7.20;99.90;;;;;;5003044;28;20049;-57
2023/04/20 08:05:33;;;;;;;6.60;3.83;;;7.20;99.90;;;;;;5002935;28;20180;-59
2023/04/20 08:07:59;;;;;;;6.35;3.72;;;7.40;99.90;;;;;;5002162;28;20056;-58
2023/04/20 08:10:24;;;;;;;5.13;3.72;;;7.20;99.90;;;;;;5002736;28;20480;-58
2023/04/20 08:12:52;;;;;;;6.82;4.05;;;7.20;99.90;;;;;;5002664;28;20117;-60
2023/04/20 08:15:17;;;;;;;6.95;3.80;;;7.30;99.90;;;;;;5002497;28;20982;-60
2023/04/20 08:17:43;;;;;;;5.75;3.95;;;7.30;99.90;;;;;;5002968;28;20216;-57
2023/04/20 08:20:09;;;;;;;7.05;4.10;;;7.70;99.90;;;;;;5000998;28;20137;-56
2023/04/20 08:22:35;;;;;;;5.53;3.67;;;7.30;99.90;;;;;;5002549;28;20053;-49
2023/04/20 08:25:00;;;;;;;8.05;4.80;;;7.40;99.90;;;;;;5002994;28;20042;-55
2023/04/20 08:27:28;;;;;;;6.32;3.22;;;7.60;99.90;;;;;;5002940;28;20401;-58
2023/04/20 08:29:54;;;;;;;8.07;4.25;;;7.30;99.90;;;;;;5002247;28;20592;-53
2023/04/20 08:32:22;;;;;;;5.93;4.20;;;7.30;99.90;;;;;;5002713;28;20050;-56
2023/04/20 08:34:48;;;;;;;7.40;4.75;;;7.20;99.90;;;;;;5001010;28;20057;-57
2023/04/20 08:37:14;;;;;;;8.32;4.85;;;7.20;99.90;;;;;;4997751;28;20445;-50
2023/04/20 08:39:40;;;;;;;9.38;4.75;;;7.20;99.90;;;;;;4998827;28;20037;-52
2023/04/20 08:42:05;;;;;;;9.07;5.10;;;7.20;99.90;;;;;;5002209;28;20408;-50
2023/04/20 08:44:31;;;;;;;11.13;4.45;;;7.30;99.90;;;;;;5002229;28;20048;-53
2023/04/20 08:46:58;;;;;;;7.68;4.55;;;7.40;99.90;;;;;;5001888;28;20045;-60
2023/04/20 08:49:27;;;;;;;9.98;5.28;;;7.50;99.90;;;;;;5002162;28;20140;-55
2023/04/20 08:51:53;;;;;;;8.32;4.65;;;7.60;99.90;;;;;;5001722;28;20525;-59
2023/04/20 08:54:18;;;;;;;10.23;5.07;;;7.60;99.90;;;;;;5003537;28;20052;-53
2023/04/20 08:56:45;;;;;;;8.38;4.63;;;7.70;99.90;;;;;;5005891;28;20053;-58
2023/04/20 08:59:13;;;;;;;9.38;5.18;;;7.90;99.90;;;;;;5005891;28;20038;-53
2023/04/20 09:01:40;;;;;;;6.80;3.83;;;7.90;99.90;;;;;;5005381;28;20132;-47
2023/04/20 09:04:22;;;;;;;10.25;5.35;;;7.80;99.90;;;;;;5006295;28;20134;-52
2023/04/20 09:06:50;;;;;;;7.07;4.30;;;7.90;99.90;;;;;;5005101;28;20081;-59
2023/04/20 09:09:16;;;;;;;8.30;4.97;;;7.90;99.90;;;;;;5006096;28;20161;-59
2023/04/20 09:11:41;;;;;;;8.77;4.32;;;7.90;99.90;;;;;;5005823;28;20232;-54
2023/04/20 09:14:12;;;;;;;6.72;4.60;;;7.90;99.90;;;;;;5005562;28;20046;-50
2023/04/20 09:17:01;;;;;;;8.18;4.55;;;7.80;99.90;;;;;;5004981;28;20424;-52
2023/04/20 09:19:29;;;;;;;8.10;4.45;;;7.80;99.90;;;;;;5005468;28;20052;-55
2023/04/20 09:21:57;;;;;;;9.88;4.80;;;7.80;99.90;;;;;;5004763;28;20057;-59
2023/04/20 09:24:30;;;;;;;8.68;4.68;;;8.10;99.90;;;;;;5005532;28;20050;-59
2023/04/20 09:26:56;;;;;;;7.32;4.28;;;7.70;99.90;;;;;;5005413;28;20054;-59
2023/04/20 09:29:24;;;;;;;8.93;4.80;;;7.80;99.90;;;;;;5004016;28;20570;-56
2023/04/20 09:31:50;;;;;;;10.93;5.07;;;7.80;99.90;;;;;;5005242;28;20436;-60
2023/04/20 09:34:18;;;;;;;8.63;5.07;;;7.90;99.90;;;;;;5005246;28;20056;-55
2023/04/20 09:36:53;;;;;;;9.93;4.93;;;7.90;99.90;;;;;;5004025;28;20052;-58
2023/04/20 09:39:20;;;;;;;11.10;5.03;;;7.80;99.90;;;;;;5005344;28;20042;-55
2023/04/20 09:41:47;;;;;;;6.97;4.60;;;7.80;99.90;;;;;;5005066;28;20061;-55
2023/04/20 09:44:15;;;;;;;9.20;5.20;;;8.00;99.90;;;;;;5003351;28;20050;-58
2023/04/20 09:46:42;;;;;;;7.38;5.05;;;7.80;99.90;;;;;;5005051;28;20050;-57
2023/04/20 09:49:10;;;;;;;7.28;4.43;;;7.90;99.90;;;;;;5005682;28;20473;-59
2023/04/20 09:51:43;;;;;;;7.45;4.80;;;8.00;99.90;;;;;;5004242;28;20089;-59
2023/04/20 09:54:10;;;;;;;10.93;5.30;;;7.90;99.90;;;;;;5005523;28;20034;-52
2023/04/20 09:56:36;;;;;;;8.55;4.72;;;7.90;99.90;;;;;;5005417;28;20038;-54
2023/04/20 09:59:03;;;;;;;8.27;5.47;;;7.90;99.90;;;;;;5004169;28;20045;-54
2023/04/20 10:01:30;;;;;;;10.73;5.43;;;7.80;99.90;;;;;;5005007;28;20057;-55
2023/04/20 10:03:58;;;;;;;8.88;5.15;;;7.80;99.90;;;;;;5004680;28;20594;-58
2023/04/20 10:06:26;;;;;;;9.13;5.57;;;8.00;99.90;;;;;;5001469;28;20046;-54
2023/04/20 10:08:53;;;;;;;10.20;5.70;;;7.80;99.90;;;;;;5004659;28;20041;-58
2023/04/20 10:11:36;;;;;;;9.18;5.70;;;7.80;99.90;;;;;;5002964;28;20058;-56
2023/04/20 10:14:17;;;;;;;7.75;5.22;;;7.80;99.90;;;;;;5004601;28;20050;-57
2023/04/20 10:16:44;;;;;;;10.13;5.80;;;7.90;99.90;;;;;;5004850;28;20072;-55
2023/04/20 10:19:10;;;;;;;10.20;6.35;;;7.90;99.90;;;;;;5004657;28;20081;-47
2023/04/20 10:21:51;;;;;;;9.93;5.32;;;8.10;99.90;;;;;;5003998;28;20077;-59
2023/04/20 10:24:30;;;;;;;8.48;5.47;;;8.20;99.90;;;;;;5004300;28;20133;-54
2023/04/20 10:26:55;;;;;;;10.18;6.20;;;8.20;99.90;;;;;;4997396;28;20046;-57
2023/04/20 10:29:26;;;;;;;8.13;4.80;;;8.20;99.90;;;;;;5004317;28;20045;-59
2023/04/20 10:31:53;;;;;;;9.80;5.95;;;8.10;99.90;;;;;;5004247;28;20068;-55
2023/04/20 10:34:30;;;;;;;8.40;6.15;;;8.20;99.90;;;;;;5004094;28;20050;-51
2023/04/20 10:37:07;;;;;;;9.23;5.63;;;8.20;99.90;;;;;;5003502;28;20060;-58
2023/04/20 10:39:32;;;;;;;7.25;5.22;;;8.30;99.90;;;;;;5004333;28;20046;-57
2023/04/20 10:41:58;;;;;;;10.63;6.20;;;8.30;99.90;;;;;;5004562;28;20057;-51
2023/04/20 10:44:24;;;;;;;10.82;6.35;;;8.30;99.90;;;;;;5004168;28;20268;-58
2023/04/20 10:46:50;;;;;;;14.73;6.38;;;8.30;99.90;;;;;;5001923;28;20049;-48
2023/04/20 10:49:17;;;;;;;9.23;6.13;;;8.40;99.90;;;;;;5003898;28;20046;-57
2023/04/20 10:51:49;;;;;;;8.63;5.97;;;8.40;99.90;;;;;;5003296;28;20083;-48
2023/04/20 10:54:16;;;;;;;11.13;5.80;;;8.30;99.90;;;;;;5000426;28;20168;-59
2023/04/20 10:56:43;;;;;;;7.60;5.85;;;8.50;99.90;;;;;;5003346;28;20045;-57
2023/04/20 10:59:11;;;;;;;9.35;6.15;;;8.60;99.90;;;;;;5004102;28;20042;-57
2023/04/20 11:01:38;;;;;;;10.15;6.03;;;8.30;99.90;;;;;;5003351;28;20042;-57
2023/04/20 11:04:04;;;;;;;10.50;6.82;;;8.40;99.90;;;;;;5003726;28;20161;-53
2023/04/20 11:06:31;;;;;;;9.80;5.93;;;8.50;99.90;;;;;;5003031;28;20645;-59
2023/04/20 11:08:57;;;;;;;8.32;4.30;;;8.60;99.90;;;;;;5003288;28;20084;-50
2023/04/20 11:11:26;;;;;;;8.98;6.72;;;8.70;99.90;;;;;;5003535;28;20744;-59
2023/04/20 11:14:03;;;;;;;11.15;6.80;;;8.70;99.90;;;;;;5003529;28;20042;-53
2023/04/20 11:16:29;;;;;;;9.15;6.32;;;8.70;99.90;;;;;;5002519;28;20081;-56
2023/04/20 11:18:55;;;;;;;9.70;6.60;;;8.70;99.90;;;;;;5003208;28;20135;-59
2023/04/20 11:21:21;;;;;;;9.93;6.90;;;8.60;99.90;;;;;;5002243;28;20545;-58
2023/04/20 11:23:48;;;;;;;11.77;8.07;;;8.60;99.90;;;;;;5003294;28;20034;-58
2023/04/20 11:26:14;;;;;;;10.27;7.78;;;8.60;99.90;;;;;;5003049;28;20120;-56
2023/04/20 11:28:53;;;;;;;10.40;7.13;;;8.80;99.90;;;;;;5000423;28;20451;-58
2023/04/20 11:31:19;;;;;;;14.15;8.38;;;8.70;99.90;;;;;;5002131;28;20049;-54
2023/04/20 11:33:45;;;;;;;15.30;8.43;;;8.80;99.90;;;;;;5001608;28;20107;-51
2023/04/20 11:36:21;;;;;;;13.07;8.82;;;8.80;99.90;;;;;;5002433;28;20034;-54
2023/04/20 11:38:48;;;;;;;11.50;7.50;;;8.90;99.90;;;;;;5002071;28;20088;-55
2023/04/20 11:41:16;;;;;;;13.45;8.07;;;9.00;99.90;;;;;;5002899;28;20068;-59
2023/04/20 11:43:42;;;;;;;12.32;8.07;;;9.00;99.90;;;;;;4982987;28;20096;-51
2023/04/20 11:46:16;;;;;;;13.32;8.00;;;9.10;99.90;;;;;;4982715;28;20134;-58
2023/04/20 11:48:42;;;;;;;9.95;7.57;;;9.10;99.90;;;;;;4995249;28;20042;-57
2023/04/20 11:51:07;;;;;;;13.32;9.50;;;9.10;99.90;;;;;;5001513;28;20034;-48
2023/04/20 11:53:33;;;;;;;12.20;7.45;;;9.20;99.90;;;;;;5002727;28;20042;-54
2023/04/20 11:55:59;;;;;;;12.15;8.20;;;9.30;99.90;;;;;;5002608;28;20134;-57
2023/04/20 11:58:25;;;;;;;11.40;8.43;;;9.40;99.90;;;;;;5003002;28;20056;-54
2023/04/20 12:00:50;;;;;;;11.77;8.98;;;9.40;99.90;;;;;;5002681;28;20463;-54
2023/04/20 12:03:16;;;;;;;11.23;8.45;;;9.50;99.90;;;;;;5002371;28;20520;-49
2023/04/20 12:05:42;;;;;;;10.35;8.20;;;9.60;99.90;;;;;;5001855;28;20057;-53
2023/04/20 12:08:08;;;;;;;10.07;7.72;;;9.80;99.90;;;;;;4983713;28;20284;-57
2023/04/20 12:10:34;;;;;;;13.00;8.60;;;9.90;99.90;;;;;;5002176;28;20095;-51
2023/04/20 12:13:00;;;;;;;11.25;7.13;;;10.20;99.90;;;;;;5002345;28;20109;-56
2023/04/20 12:15:26;;;;;;;11.90;7.90;;;10.40;99.90;;;;;;5002634;28;20050;-57
2023/04/20 12:17:52;;;;;;;11.35;7.88;;;10.70;99.90;;;;;;5002183;28;20116;-57
2023/04/20 12:20:18;;;;;;;13.10;7.78;;;11.00;99.90;;;;;;5002379;28;20145;-58
2023/04/20 12:22:44;;;;;;;10.40;7.10;;;11.00;99.90;;;;;;5002207;28;20038;-56
2023/04/20 12:25:10;;;;;;;10.38;7.50;;;11.00;99.90;;;;;;5002859;28;20408;-57
2023/04/20 12:27:36;;;;;;;9.93;7.45;;;11.00;99.90;;;;;;5001900;28;20358;-52
2023/04/20 12:30:02;;;;;;;8.52;5.95;;;10.90;99.90;;;;;;5002321;28;20050;-59
2023/04/20 12:32:28;;;;;;;10.88;7.93;;;10.70;99.90;;;;;;5002355;28;20046;-52
2023/04/20 12:34:54;;;;;;;9.73;7.47;;;10.90;99.90;;;;;;5002309;28;20099;-59
2023/04/20 12:37:20;;;;;;;10.07;6.63;;;10.90;99.90;;;;;;5001367;28;20053;-54
2023/04/20 12:39:46;;;;;;;9.20;6.35;;;11.10;99.90;;;;;;5001323;28;20050;-59
2023/04/20 12:42:11;;;;;;;10.43;7.40;;;11.20;99.90;;;;;;5002519;28;20413;-58
2023/04/20 12:44:37;;;;;;;9.25;6.90;;;11.10;99.90;;;;;;5002645;28;20049;-58
2023/04/20 12:47:03;;;;;;;9.48;6.78;;;10.90;99.90;;;;;;5004955;28;20042;-59
2023/04/20 12:49:28;;;;;;;10.20;6.70;;;10.90;99.90;;;;;;5004057;28;20046;-56
2023/04/20 12:51:54;;;;;;;7.43;6.10;;;10.70;99.90;;;;;;5001547;28;20042;-55